createdAt,value
2019-05-28T00:00:10.938Z,72.80
2019-05-28T00:02:40.428Z,73.07
2019-05-28T00:05:10.484Z,72.97
2019-05-28T00:07:39.882Z,73.10
2019-05-28T00:10:09.719Z,73.35
2019-05-28T00:12:40.890Z,73.21
2019-05-28T00:15:10.426Z,73.28
2019-05-28T00:17:39.851Z,73.42
2019-05-28T00:20:09.935Z,73.80
2019-05-28T00:22:41.024Z,73.57
2019-05-28T00:25:10.676Z,73.57
2019-05-28T00:27:40.100Z,73.58
2019-05-28T00:30:19.949Z,73.44
2019-05-28T00:32:42.398Z,72.94
2019-05-28T00:35:12.380Z,73.00
2019-05-28T00:37:41.885Z,73.12
2019-05-28T00:40:12.429Z,73.12
2019-05-28T00:42:41.918Z,73.42
2019-05-28T00:45:12.749Z,73.78
2019-05-28T00:47:42.171Z,73.57
2019-05-28T00:50:12.623Z,73.52
2019-05-28T00:52:42.025Z,73.68
2019-05-28T00:55:12.247Z,73.54
2019-05-28T00:57:47.237Z,71.44
2019-05-28T01:00:16.979Z,70.30
2019-05-28T01:02:46.455Z,69.93
2019-05-28T01:05:15.927Z,68.85
2019-05-28T01:07:45.671Z,68.42
2019-05-28T01:10:15.519Z,68.29
2019-05-28T01:12:44.939Z,67.97
2019-05-28T01:15:15.211Z,67.63
2019-05-28T01:17:44.631Z,67.32
2019-05-28T01:20:14.171Z,67.39
2019-05-28T01:22:43.586Z,67.72
2019-05-28T01:25:16.640Z,67.23
2019-05-28T01:27:44.927Z,67.26
2019-05-28T01:30:14.453Z,67.63
2019-05-28T01:32:43.887Z,68.04
2019-05-28T01:35:13.534Z,68.10
2019-05-28T01:37:42.957Z,67.98
2019-05-28T01:40:13.199Z,68.55
2019-05-28T01:42:42.676Z,69.06
2019-05-28T01:45:14.211Z,69.12
2019-05-28T01:47:43.699Z,68.44
2019-05-28T01:50:13.545Z,68.48
2019-05-28T01:52:42.950Z,68.23
2019-05-28T01:55:12.614Z,68.24
2019-05-28T01:57:42.028Z,67.75
2019-05-28T02:00:12.416Z,67.86
2019-05-28T02:02:41.813Z,68.16
2019-05-28T02:05:11.639Z,68.54
2019-05-28T02:07:41.169Z,69.03
2019-05-28T02:10:11.359Z,69.23
2019-05-28T02:12:40.823Z,69.83
2019-05-28T02:15:11.496Z,70.05
2019-05-28T02:17:41.001Z,70.13
2019-05-28T02:20:11.086Z,69.35
2019-05-28T02:22:40.500Z,68.61
2019-05-28T02:25:11.686Z,68.36
2019-05-28T02:27:41.178Z,68.01
2019-05-28T02:30:11.724Z,68.35
2019-05-28T02:32:41.139Z,67.41
2019-05-28T02:35:12.228Z,67.09
2019-05-28T02:37:41.737Z,67.77
2019-05-28T02:40:11.898Z,67.43
2019-05-28T02:42:41.307Z,66.78
2019-05-28T02:45:11.723Z,66.54
2019-05-28T02:47:41.110Z,66.50
2019-05-28T02:50:11.275Z,66.58
2019-05-28T02:52:42.203Z,66.78
2019-05-28T02:55:11.957Z,66.84
2019-05-28T02:57:42.791Z,66.74
2019-05-28T03:00:17.784Z,67.14
2019-05-28T03:02:49.936Z,66.71
2019-05-28T03:05:19.400Z,66.59
2019-05-28T03:07:50.742Z,66.74
2019-05-28T03:10:59.503Z,66.46
2019-05-28T03:13:06.386Z,66.31
2019-05-28T03:15:38.833Z,66.57
2019-05-28T03:18:10.520Z,66.63
2019-05-28T03:20:42.259Z,66.69
2019-05-28T03:23:13.103Z,66.82
2019-05-28T03:25:42.510Z,66.92
2019-05-28T03:28:12.156Z,67.03
2019-05-28T03:30:41.648Z,66.94
2019-05-28T03:33:11.115Z,67.16
2019-05-28T03:35:43.265Z,67.34
2019-05-28T03:38:13.601Z,67.14
2019-05-28T03:40:45.968Z,67.14
2019-05-28T03:43:16.307Z,67.71
2019-05-28T03:45:45.986Z,68.22
2019-05-28T03:48:15.549Z,68.07
2019-05-28T03:50:45.006Z,68.26
2019-05-28T03:53:14.403Z,68.50
2019-05-28T03:55:43.813Z,68.56
2019-05-28T03:58:13.212Z,67.91
2019-05-28T04:00:42.722Z,67.65
2019-05-28T04:03:12.126Z,68.04
2019-05-28T04:05:41.543Z,67.83
2019-05-28T04:08:11.020Z,67.11
2019-05-28T04:10:40.415Z,66.22
2019-05-28T04:13:09.916Z,66.85
2019-05-28T04:15:39.399Z,65.98
2019-05-28T04:18:08.966Z,66.22
2019-05-28T04:20:38.697Z,66.36
2019-05-28T04:23:15.741Z,66.33
2019-05-28T04:25:46.376Z,66.00
2019-05-28T04:28:15.762Z,66.07
2019-05-28T04:30:45.179Z,66.57
2019-05-28T04:33:14.566Z,67.35
2019-05-28T04:35:44.080Z,67.28
2019-05-28T04:38:13.544Z,67.10
2019-05-28T04:40:42.924Z,66.46
2019-05-28T04:43:12.338Z,66.42
2019-05-28T04:45:41.909Z,66.39
2019-05-28T04:48:11.323Z,66.90
2019-05-28T04:50:40.710Z,66.60
2019-05-28T04:53:10.151Z,67.12
2019-05-28T04:55:39.517Z,66.77
2019-05-28T04:58:08.960Z,66.29
2019-05-28T05:00:38.337Z,65.98
2019-05-28T05:03:07.810Z,66.26
2019-05-28T05:05:37.304Z,65.67
2019-05-28T05:08:06.792Z,65.35
2019-05-28T05:10:36.189Z,65.77
2019-05-28T05:13:05.677Z,65.65
2019-05-28T05:15:35.076Z,64.88
2019-05-28T05:18:04.571Z,65.33
2019-05-28T05:20:34.024Z,64.89
2019-05-28T05:23:03.416Z,65.19
2019-05-28T05:25:32.812Z,65.24
2019-05-28T05:28:02.225Z,65.08
2019-05-28T05:30:31.683Z,64.69
2019-05-28T05:33:18.710Z,64.57
2019-05-28T05:35:32.408Z,63.74
2019-05-28T05:38:01.805Z,63.68
2019-05-28T05:40:31.277Z,63.62
2019-05-28T05:43:00.694Z,63.48
2019-05-28T05:45:30.097Z,63.57
2019-05-28T05:47:59.607Z,63.22
2019-05-28T05:50:29.002Z,63.01
2019-05-28T05:52:58.417Z,63.29
2019-05-28T05:55:27.807Z,62.82
2019-05-28T05:57:57.221Z,62.57
2019-05-28T06:00:26.709Z,62.50
2019-05-28T06:02:56.138Z,62.69
2019-05-28T06:05:25.607Z,62.53
2019-05-28T06:07:55.102Z,62.16
2019-05-28T06:10:24.480Z,62.21
2019-05-28T06:12:53.895Z,62.38
2019-05-28T06:15:23.301Z,62.95
2019-05-28T06:17:52.739Z,61.66
2019-05-28T06:20:22.182Z,62.16
2019-05-28T06:22:51.605Z,61.28
2019-05-28T06:25:21.132Z,61.31
2019-05-28T06:27:50.518Z,61.28
2019-05-28T06:30:20.262Z,61.16
2019-05-28T06:32:49.674Z,60.58
2019-05-28T06:35:19.184Z,59.97
2019-05-28T06:37:48.592Z,61.22
2019-05-28T06:40:18.568Z,61.14
2019-05-28T06:42:47.978Z,60.95
2019-05-28T06:45:17.742Z,60.30
2019-05-28T06:47:47.138Z,60.25
2019-05-28T06:50:16.829Z,60.71
2019-05-28T06:52:46.314Z,60.26
2019-05-28T06:55:16.472Z,60.74
2019-05-28T06:57:45.885Z,60.67
2019-05-28T07:00:16.229Z,60.63
2019-05-28T07:02:45.637Z,60.45
2019-05-28T07:05:15.424Z,59.80
2019-05-28T07:07:44.843Z,59.04
2019-05-28T07:10:14.796Z,59.21
2019-05-28T07:12:47.258Z,59.07
2019-05-28T07:15:16.963Z,58.10
2019-05-28T07:17:46.362Z,57.71
2019-05-28T07:20:16.705Z,56.30
2019-05-28T07:22:46.272Z,57.03
2019-05-28T07:25:16.047Z,56.36
2019-05-28T07:27:45.440Z,55.57
2019-05-28T07:30:15.039Z,55.03
2019-05-28T07:32:44.441Z,55.29
2019-05-28T07:35:14.256Z,55.11
2019-05-28T07:37:43.656Z,54.28
2019-05-28T07:40:28.174Z,53.83
2019-05-28T07:42:44.580Z,52.53
2019-05-28T07:45:14.536Z,51.61
2019-05-28T07:47:43.925Z,52.24
2019-05-28T07:50:13.579Z,52.08
2019-05-28T07:52:42.971Z,51.42
2019-05-28T07:55:12.549Z,51.12
2019-05-28T07:57:41.961Z,50.18
2019-05-28T08:00:11.947Z,50.31
2019-05-28T08:02:41.399Z,50.86
2019-05-28T08:05:10.972Z,51.05
2019-05-28T08:07:40.354Z,51.75
2019-05-28T08:10:10.212Z,52.85
2019-05-28T08:12:39.609Z,53.45
2019-05-28T08:15:09.766Z,54.05
2019-05-28T08:17:39.188Z,53.17
2019-05-28T08:20:08.850Z,53.68
2019-05-28T08:22:42.655Z,54.16
2019-05-28T08:25:27.285Z,53.08
2019-05-28T08:27:40.902Z,53.08
2019-05-28T08:30:10.494Z,51.92
2019-05-28T08:32:39.933Z,51.11
2019-05-28T08:35:09.882Z,51.48
2019-05-28T08:37:39.305Z,50.88
2019-05-28T08:40:08.958Z,50.32
2019-05-28T08:42:38.442Z,48.21
2019-05-28T08:45:08.772Z,46.06
2019-05-28T08:47:38.182Z,45.63
2019-05-28T08:50:08.242Z,43.30
2019-05-28T08:52:37.717Z,44.47
2019-05-28T08:55:07.760Z,43.97
2019-05-28T08:57:40.111Z,43.48
2019-05-28T09:00:11.342Z,43.03
2019-05-28T09:02:40.813Z,43.34
2019-05-28T09:05:25.264Z,43.51
2019-05-28T09:07:41.782Z,42.49
2019-05-28T09:10:11.398Z,41.49
2019-05-28T09:12:40.826Z,40.97
2019-05-28T09:15:10.488Z,41.57
2019-05-28T09:17:39.921Z,42.83
2019-05-28T09:20:09.498Z,43.45
2019-05-28T09:22:38.934Z,44.02
2019-05-28T09:25:08.983Z,44.51
2019-05-28T09:27:38.425Z,43.11
2019-05-28T09:30:10.263Z,42.55
2019-05-28T09:32:39.783Z,39.99
2019-05-28T09:35:09.933Z,36.97
2019-05-28T09:37:39.435Z,34.64
2019-05-28T09:40:10.585Z,33.53
2019-05-28T09:42:40.075Z,32.35
2019-05-28T09:45:21.960Z,33.88
2019-05-28T09:47:41.229Z,36.28
2019-05-28T09:50:29.271Z,34.67
2019-05-28T09:52:53.807Z,32.68
2019-05-28T09:55:14.213Z,28.88
2019-05-28T09:57:47.869Z,28.28
2019-05-28T10:00:19.273Z,28.07
2019-05-28T10:02:49.195Z,26.74
2019-05-28T10:05:19.116Z,25.40
2019-05-28T10:07:49.322Z,22.65
2019-05-28T10:10:19.976Z,25.29
2019-05-28T10:12:49.443Z,25.29
2019-05-28T10:15:19.591Z,26.29
2019-05-28T10:17:49.007Z,26.83
2019-05-28T10:20:20.294Z,29.52
2019-05-28T10:22:49.813Z,30.78
2019-05-28T10:25:19.548Z,33.34
2019-05-28T10:28:00.202Z,34.35
2019-05-28T10:30:21.056Z,31.75
2019-05-28T10:32:50.619Z,31.30
2019-05-28T10:35:21.885Z,30.71
2019-05-28T10:37:51.304Z,32.26
2019-05-28T10:40:21.240Z,35.45
2019-05-28T10:42:50.667Z,37.86
2019-05-28T10:45:20.810Z,39.94
2019-05-28T10:47:50.230Z,38.15
2019-05-28T10:50:20.011Z,39.23
2019-05-28T10:52:49.489Z,40.77
2019-05-28T10:55:19.013Z,42.51
2019-05-28T10:57:48.573Z,44.26
2019-05-28T11:00:18.784Z,48.33
2019-05-28T11:02:48.271Z,48.07
2019-05-28T11:05:18.110Z,48.69
2019-05-28T11:07:47.519Z,50.02
2019-05-28T11:10:25.065Z,50.09
2019-05-28T11:12:48.289Z,48.24
2019-05-28T11:15:18.614Z,47.69
2019-05-28T11:17:48.190Z,44.64
2019-05-28T11:20:18.473Z,38.57
2019-05-28T11:22:47.882Z,33.21
2019-05-28T11:25:18.008Z,29.64
2019-05-28T11:27:47.414Z,26.57
2019-05-28T11:30:17.960Z,23.28
2019-05-28T11:32:47.362Z,21.84
2019-05-28T11:35:18.593Z,22.25
2019-05-28T11:37:48.018Z,23.20
2019-05-28T11:40:18.352Z,22.90
2019-05-28T11:42:47.846Z,21.76
2019-05-28T11:45:18.679Z,19.07
2019-05-28T11:47:50.874Z,18.44
2019-05-28T11:50:19.897Z,17.63
2019-05-28T11:52:49.345Z,17.55
2019-05-28T11:55:19.377Z,17.26
2019-05-28T11:57:48.863Z,19.18
2019-05-28T12:00:19.287Z,17.50
2019-05-28T12:02:48.759Z,19.06
2019-05-28T12:05:18.809Z,19.24
2019-05-28T12:07:51.716Z,19.84
2019-05-28T12:10:20.235Z,18.00
2019-05-28T12:12:49.748Z,18.10
2019-05-28T12:15:21.452Z,17.68
2019-05-28T12:17:51.060Z,17.61
2019-05-28T12:20:21.591Z,17.24
2019-05-28T12:23:06.945Z,17.84
2019-05-28T12:25:23.841Z,18.62
2019-05-28T12:27:53.276Z,18.54
2019-05-28T12:30:23.401Z,20.86
2019-05-28T12:32:52.875Z,23.87
2019-05-28T12:35:29.210Z,32.12
2019-05-28T12:37:53.995Z,33.92
2019-05-28T12:40:23.849Z,34.90
2019-05-28T12:42:53.245Z,36.53
2019-05-28T12:45:34.998Z,34.89
2019-05-28T12:48:09.540Z,34.16
2019-05-28T12:50:25.462Z,33.06
2019-05-28T12:52:54.876Z,31.94
2019-05-28T12:55:24.453Z,32.33
2019-05-28T12:57:53.907Z,30.55
2019-05-28T13:00:24.493Z,31.10
2019-05-28T13:02:53.896Z,31.19
2019-05-28T13:05:26.258Z,31.43
2019-05-28T13:08:08.179Z,30.84
2019-05-28T13:10:26.804Z,33.26
2019-05-28T13:12:56.270Z,30.79
2019-05-28T13:15:25.709Z,30.60
2019-05-28T13:17:55.124Z,34.73
2019-05-28T13:20:24.551Z,35.90
2019-05-28T13:22:54.367Z,37.80
2019-05-28T13:25:26.539Z,40.45
2019-05-28T13:27:55.943Z,46.07
2019-05-28T13:30:25.607Z,50.68
2019-05-28T13:32:55.040Z,51.93
2019-05-28T13:35:24.673Z,50.16
2019-05-28T13:37:54.050Z,54.41
2019-05-28T13:40:23.668Z,54.26
2019-05-28T13:42:53.237Z,54.85
2019-05-28T13:45:22.994Z,53.58
2019-05-28T13:47:52.458Z,51.51
2019-05-28T13:50:21.958Z,49.37
2019-05-28T13:52:51.374Z,48.69
2019-05-28T13:55:21.137Z,45.06
2019-05-28T13:57:50.534Z,41.62
2019-05-28T14:00:21.185Z,41.48
2019-05-28T14:02:51.414Z,43.74
2019-05-28T14:05:21.071Z,43.92
2019-05-28T14:07:50.459Z,42.94
2019-05-28T14:10:19.950Z,41.35
2019-05-28T14:12:49.341Z,41.94
2019-05-28T14:15:20.283Z,41.44
2019-05-28T14:17:49.739Z,41.08
2019-05-28T14:20:21.033Z,39.45
2019-05-28T14:22:50.523Z,42.42
2019-05-28T14:25:20.286Z,42.29
2019-05-28T14:27:49.752Z,42.75
2019-05-28T14:30:20.817Z,39.06
2019-05-28T14:32:50.219Z,43.23
2019-05-28T14:35:19.772Z,46.53
2019-05-28T14:37:49.171Z,49.75
2019-05-28T14:40:24.001Z,51.39
2019-05-28T14:42:50.815Z,52.53
2019-05-28T14:45:20.784Z,54.40
2019-05-28T14:47:50.192Z,56.08
2019-05-28T14:50:19.859Z,51.16
2019-05-28T14:52:49.260Z,50.58
2019-05-28T14:55:18.916Z,52.11
2019-05-28T14:57:48.310Z,47.99
2019-05-28T15:00:19.192Z,47.50
2019-05-28T15:02:48.593Z,47.57
2019-05-28T15:05:18.235Z,48.76
2019-05-28T15:07:47.647Z,46.83
2019-05-28T15:10:18.087Z,55.36
2019-05-28T15:12:47.599Z,53.98
2019-05-28T15:15:34.434Z,55.54
2019-05-28T15:17:49.901Z,58.28
2019-05-28T15:20:20.379Z,57.16
2019-05-28T15:22:49.784Z,58.70
2019-05-28T15:25:19.528Z,59.40
2019-05-28T15:27:48.943Z,59.37
2019-05-28T15:30:18.781Z,57.79
2019-05-28T15:32:48.202Z,59.36
2019-05-28T15:35:17.947Z,56.42
2019-05-28T15:37:47.472Z,56.45
2019-05-28T15:40:17.394Z,55.17
2019-05-28T15:42:46.797Z,54.87
2019-05-28T15:45:16.353Z,55.08
2019-05-28T15:47:46.142Z,55.98
2019-05-28T15:50:17.085Z,53.26
2019-05-28T15:52:46.502Z,54.18
2019-05-28T15:55:15.972Z,51.69
2019-05-28T15:57:45.392Z,51.24
2019-05-28T16:00:20.549Z,51.34
2019-05-28T16:02:49.940Z,49.58
2019-05-28T16:05:19.468Z,49.56
2019-05-28T16:07:48.914Z,50.02
2019-05-28T16:10:18.644Z,51.37
2019-05-28T16:12:48.128Z,51.16
2019-05-28T16:15:18.970Z,50.92
2019-05-28T16:17:48.432Z,52.01
2019-05-28T16:20:18.380Z,51.00
2019-05-28T16:22:50.538Z,50.76
2019-05-28T16:25:20.864Z,52.35
2019-05-28T16:27:50.282Z,51.74
2019-05-28T16:30:21.122Z,53.94
2019-05-28T16:32:50.571Z,50.42
2019-05-28T16:35:20.773Z,48.93
2019-05-28T16:37:50.258Z,50.04
2019-05-28T16:40:19.927Z,48.70
2019-05-28T16:42:49.424Z,45.88
2019-05-28T16:45:19.348Z,44.48
2019-05-28T16:47:48.780Z,45.49
2019-05-28T16:50:18.621Z,46.74
2019-05-28T16:52:48.047Z,46.63
2019-05-28T16:55:17.883Z,46.35
2019-05-28T16:57:47.299Z,46.34
2019-05-28T17:00:17.053Z,47.19
2019-05-28T17:02:46.582Z,47.29
2019-05-28T17:05:16.243Z,46.68
2019-05-28T17:07:45.643Z,47.57
2019-05-28T17:10:31.786Z,48.04
2019-05-28T17:12:46.563Z,49.70
2019-05-28T17:15:18.743Z,49.80
2019-05-28T17:17:48.159Z,50.58
2019-05-28T17:20:17.997Z,50.39
2019-05-28T17:22:47.423Z,50.65
2019-05-28T17:25:18.052Z,50.96
2019-05-28T17:27:47.460Z,51.06
2019-05-28T17:30:23.799Z,50.30
2019-05-28T17:32:49.685Z,51.25
2019-05-28T17:35:19.110Z,50.76
2019-05-28T17:37:48.521Z,50.95
2019-05-28T17:40:21.805Z,50.77
2019-05-28T17:42:49.117Z,51.02
2019-05-28T17:45:19.091Z,51.49
2019-05-28T17:47:48.508Z,51.03
2019-05-28T17:50:18.217Z,51.37
2019-05-28T17:52:51.692Z,51.15
2019-05-28T17:55:21.698Z,51.34
2019-05-28T17:57:51.358Z,50.59
2019-05-28T18:00:20.793Z,52.01
2019-05-28T18:02:50.181Z,52.53
2019-05-28T18:05:19.632Z,52.33
2019-05-28T18:07:49.038Z,52.09
2019-05-28T18:10:19.087Z,53.05
2019-05-28T18:12:51.505Z,53.00
2019-05-28T18:15:20.918Z,52.60
2019-05-28T18:17:50.346Z,52.11
2019-05-28T18:20:19.749Z,51.91
2019-05-28T18:22:49.155Z,52.39
2019-05-28T18:25:20.534Z,52.13
2019-05-28T18:27:49.683Z,52.75
2019-05-28T18:30:19.651Z,52.65
2019-05-28T18:32:49.054Z,53.59
2019-05-28T18:35:18.472Z,53.91
2019-05-28T18:37:47.872Z,54.32
2019-05-28T18:40:17.727Z,54.21
2019-05-28T18:42:47.122Z,54.28
2019-05-28T18:45:17.062Z,54.36
2019-05-28T18:47:46.644Z,55.05
2019-05-28T18:50:16.360Z,55.04
2019-05-28T18:52:45.989Z,55.92
2019-05-28T18:55:15.352Z,56.41
2019-05-28T18:57:50.710Z,56.66
2019-05-28T19:00:17.734Z,57.48
2019-05-28T19:02:47.128Z,58.03
2019-05-28T19:05:17.681Z,57.25
2019-05-28T19:07:47.078Z,57.91
2019-05-28T19:10:16.586Z,58.04
2019-05-28T19:12:45.996Z,58.60
2019-05-28T19:15:15.647Z,58.63
2019-05-28T19:17:45.061Z,59.02
2019-05-28T19:20:14.925Z,59.37
2019-05-28T19:22:44.328Z,59.58
2019-05-28T19:25:14.784Z,59.97
2019-05-28T19:27:44.197Z,59.80
2019-05-28T19:30:14.251Z,60.07
2019-05-28T19:32:44.073Z,60.31
2019-05-28T19:35:14.031Z,60.61
2019-05-28T19:37:43.797Z,60.63
2019-05-28T19:40:14.983Z,60.34
2019-05-28T19:42:44.390Z,61.02
2019-05-28T19:45:13.943Z,61.08
2019-05-28T19:47:43.333Z,61.28
2019-05-28T19:50:12.747Z,61.71
2019-05-28T19:52:42.267Z,62.01
2019-05-28T19:55:12.072Z,62.38
2019-05-28T19:57:41.457Z,63.50
2019-05-28T20:00:11.206Z,63.47
2019-05-28T20:02:40.602Z,63.34
2019-05-28T20:05:10.669Z,63.28
2019-05-28T20:07:40.075Z,63.49
2019-05-28T20:10:10.243Z,64.24
2019-05-28T20:12:39.733Z,63.89
2019-05-28T20:15:11.537Z,64.43
2019-05-28T20:17:40.918Z,64.90
2019-05-28T20:20:12.081Z,64.85
2019-05-28T20:22:41.549Z,64.85
2019-05-28T20:25:11.753Z,64.86
2019-05-28T20:27:41.275Z,64.86
2019-05-28T20:30:11.705Z,65.42
2019-05-28T20:32:41.116Z,65.37
2019-05-28T20:35:11.920Z,65.30
2019-05-28T20:37:41.418Z,65.56
2019-05-28T20:40:12.768Z,66.35
2019-05-28T20:42:45.401Z,66.60
2019-05-28T20:45:14.196Z,66.87
2019-05-28T20:47:43.626Z,67.17
2019-05-28T20:50:13.508Z,67.70
2019-05-28T20:52:43.014Z,68.01
2019-05-28T20:55:14.024Z,68.07
2019-05-28T20:57:43.515Z,67.98
2019-05-28T21:00:13.949Z,67.72
2019-05-28T21:02:43.392Z,67.47
2019-05-28T21:05:13.051Z,67.56
2019-05-28T21:07:42.442Z,68.07
2019-05-28T21:10:12.508Z,68.46
2019-05-28T21:12:44.315Z,68.73
2019-05-28T21:15:15.863Z,68.98
2019-05-28T21:17:44.560Z,69.59
2019-05-28T21:20:14.402Z,69.72
2019-05-28T21:22:43.836Z,69.92
2019-05-28T21:25:14.182Z,69.90
2019-05-28T21:27:43.590Z,70.18
2019-05-28T21:30:13.524Z,70.29
2019-05-28T21:32:42.960Z,70.43
2019-05-28T21:35:12.787Z,70.66
2019-05-28T21:37:42.265Z,70.75
2019-05-28T21:40:12.094Z,70.73
2019-05-28T21:42:41.568Z,70.67
2019-05-28T21:45:12.697Z,71.08
2019-05-28T21:47:42.475Z,71.30
2019-05-28T21:50:13.758Z,71.32
2019-05-28T21:52:43.176Z,71.35
2019-05-28T21:55:13.617Z,71.51
2019-05-28T21:57:43.032Z,71.48
2019-05-28T22:00:29.143Z,71.45
2019-05-28T22:02:58.633Z,71.42
2019-05-28T22:05:28.081Z,71.55
2019-05-28T22:07:57.614Z,71.77
2019-05-28T22:10:27.010Z,71.71
2019-05-28T22:12:57.669Z,71.76
2019-05-28T22:15:27.307Z,71.88
2019-05-28T22:17:56.719Z,71.97
2019-05-28T22:20:26.119Z,71.86
2019-05-28T22:22:56.302Z,72.00
2019-05-28T22:25:25.803Z,72.28
2019-05-28T22:27:56.459Z,72.41
2019-05-28T22:30:26.339Z,72.58
2019-05-28T22:32:55.856Z,72.52
2019-05-28T22:35:25.281Z,72.49
2019-05-28T22:37:54.681Z,72.77
2019-05-28T22:40:24.209Z,73.10
2019-05-28T22:42:53.626Z,73.33
2019-05-28T22:45:23.118Z,73.74
2019-05-28T22:47:52.540Z,73.87
2019-05-28T22:50:23.374Z,74.07
2019-05-28T22:52:52.965Z,74.12
2019-05-28T22:55:22.359Z,74.24
2019-05-28T22:57:51.777Z,74.16
2019-05-28T23:00:21.400Z,74.18
2019-05-28T23:02:50.904Z,74.46
2019-05-28T23:05:20.304Z,74.51
2019-05-28T23:07:49.721Z,74.53
2019-05-28T23:10:19.608Z,74.72
2019-05-28T23:12:49.150Z,74.72
2019-05-28T23:15:18.787Z,74.62
2019-05-28T23:17:48.775Z,75.09
2019-05-28T23:20:18.306Z,75.26
2019-05-28T23:22:47.730Z,75.47
2019-05-28T23:25:18.166Z,75.58
2019-05-28T23:27:47.583Z,75.49
2019-05-28T23:30:24.870Z,75.65
2019-05-28T23:32:48.936Z,75.83
2019-05-28T23:35:18.396Z,75.79
2019-05-28T23:37:47.854Z,76.04
2019-05-28T23:40:17.545Z,76.12
2019-05-28T23:42:46.969Z,76.31
2019-05-28T23:45:16.532Z,75.96
2019-05-28T23:47:45.952Z,75.81
2019-05-28T23:50:18.213Z,75.91
2019-05-28T23:52:47.418Z,76.05
2019-05-28T23:55:37.627Z,76.33
2019-05-28T23:58:07.700Z,76.35
